Central Sonoma County Latest

37 Stations

15 Minute Data | America/Los_Angeles
as of 5/7/26 1:10 AM PDT
Station Date Time Temp (°F) RH (%) Dew Pt (°F) Wind Spd (mph) Wind Dir (°) Wind Gust (mph) Latest Rain (In) Daily Rain (In) Daily Max Temp (°F) Daily Min Temp (°F)
Windsor-NW (Ranch 8) 5/7/26 0100 52.6   2.2 83   1 47.7   2.0 1.4   1.4 SE | 136 5.3   3.9 0.00 0.00 77.2   9.2 52.1   0.0
Windsor-East (Ranch 16) 5/7/26 0100 53.2   1.9 91   5 50.7   0.5 4.0   1.3 SSE | 156 7.2   1.7 0.00 0.00 75.1   8.4 53.1   1.0
Mark West-North (Ranch 14) 5/7/26 0100 53.5   1.5 90   4 50.6   0.3 2.8   1.4 NW | 321 7.5   3.5 0.00 0.00 74.6   8.0 53.1   1.1
Windsor-SE (Silk Rd) 5/7/26 0100 52.7   2.5 94   6 51.1   0.7 2.2   1.1 SSE | 158 5.5   2.8 0.00 0.00 74.6   7.4 52.1   0.4
Fulton-NW (Ranch 5) 5/7/26 0100 53.3   1.6 92   3 51.0   0.6 3.5   1.0 E | 96 6.4   1.4 0.00 0.00 74.0   7.3 52.9   0.7
Bisordi (Fulton) 5/7/26 0100 53.5   1.6 90   2 50.7   1.2 2.1   1.0 SSE | 153 7.1   3.8 0.00 0.00 73.6   7.8 53.5   1.1
Windsor-South (Laughlin Rd) 5/4/26 1515 70.3 46 48.5 - - - 0.00 - 71.4 51.0
Fulton-SE (Barnes Rd) 5/7/26 0100 53.8   1.5 89   3 50.7   0.6 4.5   2.5 ESE | 116 8.7   4.4 0.00 0.00 73.2   7.3 53.7   1.5
Fulton-SW (Ranch 21) 5/7/26 0030 52.4   2.2 93   4 50.4   0.8 5.3   2.1 SSE | 166 8.7   3.2 0.00 0.00 73.1   7.4 52.2   0.1
NW Santa Rosa (Piner Road) 5/7/26 0100 52.5   2.0 100   0 52.5   2.0 3.2   2.3 ESE | 123 6.8   3.9 0.00 0.00 72.8   7.3 52.3   0.2
River Rd South (Denner Ranch) 5/7/26 0100 51.8   2.5 0   0 -66.6   1.6 3.3   1.1 SE | 131 6.1   2.6 - - 74.6   7.4 50.7   0.9
West Santa Rosa (LOV Vineyard) 5/7/26 0100 52.3   2.3 94   6 50.6   0.6 0.7   0.2 SSE | 159 4.0   1.5 0.00 0.00 72.8   6.9 51.6   0.6
Guerneville Rd (Prokopakis) 5/7/26 0100 52.6   2.8 94   7 51.1   0.7 - - - 0.00 0.00 77.8   8.0 52.1   0.6
SunnyView Vineyard (SCWC) 5/7/26 0100 52.4   2.0 92   4 50.1   0.9 1.7   1.1 SE | 132 5.5   3.6 0.00 0.00 73.5   6.9 51.6   0.3
Guerneville Rd West (Balletto) 5/7/26 0100 52.5   2.2 96   5 51.5   0.8 3.2   1.6 SE | 139 6.4   2.8 0.00 0.00 72.4   6.4 51.8   0.6
Sanchietti Ranch 5/7/26 0100 53.9   1.9 92   3 51.8   0.9 3.0   1.3 SSE | 166 6.5   2.7 0.00 0.00 72.9   6.2 52.8   0.4
Occidental Rd (Sebastopol) 5/7/26 0100 51.5   2.9 100   0 51.5   3.0 0.9   0.3 SE | 144 4.2   0.4 0.00 0.00 72.3   6.0 50.1   1.9
Harper's Rest (Windsor-West) 5/7/26 0100 51.2   2.5 93   6 49.3   0.7 1.3   0.0 ESE | 103 2.9   0.6 0.00 0.00 76.2   8.8 50.4   0.3
Lower Westside Rd (Ranch 12) 5/7/26 0100 52.7   2.5 92   6 50.5   0.7 1.6   1.3 SE | 139 4.1   2.1 0.00 0.00 77.5   9.1 52.4   0.8
Guerneville (Laughlin Rd) 5/7/26 0100 52.0   2.0 94   3 50.5   1.1 0.0   0.0 N | 0 0.0   0.0 0.00 0.00 73.7   7.5 50.2   0.6
Korbel (Winery) 5/7/26 0100 53.6   1.5 93   4 51.6   0.2 0.0   0.0 N | 0 0.0   0.0 0.00 0.00 73.4   7.7 52.2   0.8
Forestville (Shone Farms) 5/7/26 0100 52.4   2.4 94   5 50.6   0.8 1.3   0.4 E | 86 3.2   1.0 0.00 0.00 76.2   9.0 51.3   0.2
Forestville-NE (Ranch 30) 5/7/26 0015 51.2   3.2 96   5 50.1   1.7 0.7   1.4 NE | 54 2.2   1.8 0.00 0.00 75.7   6.4 51.0   0.2
Foggy Bend (Ranch 41) 5/7/26 0100 53.0   2.7 92   5 50.8   1.2 0.3   0.4 SE | 133 2.0   0.1 0.00 0.00 75.4   8.4 52.4   0.1
Last Stop 5/7/26 0100 51.5   3.2 96   7 50.3   1.2 1.6   1.5 ESE | 107 2.9   2.2 0.00 0.00 74.2   8.6 48.9   3.1
Green Valley Vineyard 5/7/26 0100 51.1   2.5 96   8 50.1   0.0 1.2   0.8 NE | 47 2.6   0.4 0.00 0.00 72.7   7.2 50.0   1.0
Park Royal 5/7/26 0100 52.5   2.0 92   3 50.4   1.1 - - - 0.00 0.00 73.0   7.2 52.4   0.5
Merino 5/7/26 0100 52.8   1.9 96   3 51.6   1.0 3.2   2.3 SSE | 162 7.6   5.3 0.00 0.00 72.9   7.0 51.8   0.2
Green Valley (Sanchietti) 5/7/26 0100 52.0   3.2 - - - - - - - 52.2   3.1 50.4   4.5
Keefer Ranch (Green Valley) 5/7/26 0100 51.6   3.1 96   9 50.4   0.5 - - - 0.00 0.00 73.0   7.0 49.7   2.4
Graton-West (Dutton Ranch) 5/7/26 0100 52.4   2.3 100   0 52.4   2.3 0.9   0.4 NE | 50 2.8   0.6 0.00 0.00 74.6   6.7 51.0   1.2
Graton-South (Mill Station Rd) 5/7/26 0100 50.9   3.3 96   6 49.8   1.7 0.0   0.0 N | 0 0.0   0.0 0.00 0.00 69.8   5.0 49.6   2.0
Occidental (Horseshoe Bend) 5/7/26 0100 49.6   1.8 97   1 48.9   1.4 - - - 0.00 0.00 69.4   5.6 49.6   0.6
Sexton Valley (Jacqueline's Blk) 5/7/26 0100 51.8   2.4 96   3 50.6   1.5 0.8   0.1 W | 268 2.8   0.5 0.00 0.00 69.7   3.6 50.5   1.7
Sebastopol Hills (Burnside Rd) 5/7/26 0100 50.5   1.9 99   1 50.2   1.5 0.6   1.8 SSW | 195 2.3   3.0 0.00 0.01 66.6   3.1 50.0   0.9
Pleasant Hill 5/7/26 0100 50.7   2.5 96   6 49.7   0.9 1.0   0.2 SSW | 207 2.7   2.1 0.00 0.01 69.0   3.2 48.4   2.6
Seaview/Fort Ross (Hirsch) 5/7/26 0100 54.7   4.6 86   9 50.5   2.0 1.2   1.1 E | 88 2.7   1.8 0.00 0.00 64.9   9.6 49.0   2.3
Max     54.7 100 52.5 5.3 - 8.7 0.00 0.01 77.8 53.7
Avg     52.3 91 47.2 1.8 - 4.4 0.00 - - -
Min     49.6 0 -66.6 0.0 - 0.0 0.00 0.00 52.2 48.4